Flight Track Log - Related Links

Times and Time Zones

All times are in EDT time to prevent confusion due to time zone crossing. See the SWA2236 flight status page for this flight to view local times or setup timezone preferences in your user account.

Time Position Orientation Groundspeed Altitude Reporting Facility
EDT Latitude Longitude Course Direction KTS MPH feet Rate Location/Type
Mon 10:33:06 PM 39.1833 -76.7333 180° South 184 212 1,800  Level Potomac TRACON
Mon 10:34:06 PM 39.1333 -76.7333 180° South 235 270 4,600 3,108 Climbing Potomac TRACON
Mon 10:35:52 PM 39.1325 -76.5656 90° East 253 291 10,400 3,325 Climbing Washington Center
Mon 10:36:52 PM 39.1375 -76.4558 87° East 278 320 13,800 1,800 Climbing Washington Center
Mon 10:37:52 PM 39.1467 -76.3331 84° East 314 361 14,000 942 Climbing Washington Center
Mon 10:38:53 PM 39.1536 -76.2044 86° East 341 392 15,700 2,231 Climbing Washington Center
Mon 10:39:53 PM 39.1792 -76.0656 77° East 374 430 18,500 2,975 Climbing Washington Center
Mon 10:40:54 PM 39.2442 -75.9481 54° Northeast 385 443 21,700 3,025 Climbing Washington Center
Mon 10:41:52 PM 39.3153 -75.8358 51° Northeast 391 450 24,500 2,521 Climbing Washington Center
Mon 10:42:53 PM 39.3883 -75.7178 51° Northeast 402 463 26,700 1,800 Climbing Washington Center
Mon 10:43:52 PM 39.4656 -75.5917 52° Northeast 420 483 28,100 1,150 Climbing Washington Center
Mon 10:44:53 PM 39.5425 -75.4625 52° Northeast 439 505 29,000 321 Climbing Washington Center
Mon 10:46:40 PM 39.6806 -75.2431 51° Northeast 443 510 29,000  Level New York Center
Mon 10:47:42 PM 39.7556 -75.1319 49° Northeast 443 510 29,000  Level New York Center
Mon 10:48:41 PM 39.8392 -75.0153 47° Northeast 443 510 29,000  Level New York Center
Mon 10:49:39 PM 39.9269 -74.8933 47° Northeast 449 517 29,000  Level New York Center
Mon 10:50:40 PM 40.0189 -74.7606 48° Northeast 449 517 29,000  Level New York Center
Mon 10:51:42 PM 40.1017 -74.6597 43° Northeast 449 517 29,000  Level New York Center
Mon 10:52:39 PM 40.2056 -74.5406 41° Northeast 443 510 29,000  Level New York Center
Mon 10:53:39 PM 40.2942 -74.4392 41° Northeast 449 517 29,000  Level New York Center
Mon 10:54:40 PM 40.3914 -74.3244 42° Northeast 449 517 29,000 -397 Level New York Center
Mon 10:55:40 PM 40.4886 -74.2122 41° Northeast 454 522 28,200 -1,024 Descending New York Center
Mon 10:58:05 PM 40.7381 -73.9275 41° Northeast 456 525 25,500 -1,229 Descending Boston Center
Mon 10:59:05 PM 40.8331 -73.8144 42° Northeast 456 525 24,000 -800 Descending Boston Center
Mon 11:00:05 PM 40.9261 -73.7036 42° Northeast 450 518 23,900 -550 Descending Boston Center
Mon 11:01:05 PM 41.0514 -73.6925 North 420 483 22,900 -450 Descending Boston Center
Mon 11:02:05 PM 41.1783 -73.7031 356° North 432 497 23,000 -300 Climbing Boston Center
Mon 11:03:05 PM 41.3094 -73.7086 358° North 448 516 22,300 -1,200 Descending Boston Center
Mon 11:04:05 PM 41.4386 -73.7167 357° North 458 527 20,600 -1,750 Descending Boston Center
Mon 11:05:05 PM 41.5469 -73.7272 356° North 450 518 18,800 -1,800 Descending Boston Center
Mon 11:06:05 PM 41.6761 -73.7353 357° North 425 489 17,000 -1,750 Descending Boston Center
Mon 11:07:05 PM 41.7803 -73.7431 357° North 418 481 15,300 -1,900 Descending Boston Center
Mon 11:08:05 PM 41.9008 -73.7511 357° North 404 465 13,200 -2,143 Descending Boston Center
Mon 11:08:43 PM 41.9656 -73.7581 355° North 388 447 11,800 -1,333 Descending Boston Center
Mon 11:09:44 PM 42.0717 -73.7631 358° North 374 430 11,000 -393 Descending Boston Center
Mon 11:10:45 PM 42.1739 -73.7708 357° North 325 374 11,000 -541 Level Boston Center
Mon 11:11:46 PM 42.2569 -73.7753 358° North 286 329 9,900 -1,240 Descending Boston Center
Mon 11:12:46 PM 42.3367 -73.7517 12° North 291 335 8,500 -1,587 Descending Boston Center
Mon 11:13:47 PM 42.4119 -73.7194 18° North 283 326 6,700 -1,736 Descending Boston Center
Mon 11:14:47 PM 42.4831 -73.6928 15° North 270 311 5,000 -843 Descending Boston Center
Mon 11:15:48 PM 42.5542 -73.6633 17° North 266 306 5,000  Level Boston Center
Mon 11:16:49 PM 42.6297 -73.6339 16° North 270 311 5,000  Level Boston Center
Mon 11:17:50 PM 42.7047 -73.6381 358° North 276 318 5,000  Level Boston Center
Mon 11:18:50 PM 42.7794 -73.6564 350° North 266 306 5,000 -545 Level Boston Center
Mon 11:19:51 PM 42.8439 -73.6719 350° North 228 262 3,900 -1,043 Descending Boston Center
Mon 11:20:45 PM 42.8894 -73.7011 335° Northwest 211 243 3,000 -991 Descending Boston Center
Mon 11:21:46 PM 42.8947 -73.7806 275° West 214 246 2,000 -492 Descending Boston Center
Mon 11:22:47 PM 42.8422 -73.8133 205° Southwest 191 220 2,000 -492 Level Boston Center
Mon 11:23:48 PM 42.7986 -73.8097 177° South 140 161 1,000 -793 Descending Boston Center
Mon 11:24:48 PM 42.7631 -73.8089 179° South 124 143 400 -600 Descending Boston Center
Mon 11:26:00 PM 42.7491 -73.8020 160° South  Level Estimated
Mon 11:33:00 PM 42.7491 -73.8020 304° West  Level Estimated
Mon 11:34:00 PM 42.7491 -73.8020 304° West  Level Estimated

Login

Don't have an account? Register now (free) for customized features, flight alerts, and more!